Time;durP1;ratioP1;P1;durP2;ratioP2;P2;SDS_P1;SDS_P2;PMS_P1;PMS_P2;Temp;Humidity;BMP_temperature;BMP_pressure;BME280_temperature;BME280_humidity;BME280_pressure;Samples;Min_cycle;Max_cycle;Signal;HPM_P1;HPM_P2
2023/03/06 00:00:18;;;;;;;6.00;1.83;;;;;;;;;;5050411;28;20512;-71
2023/03/06 00:02:44;;;;;;;5.22;1.80;;;;;;;;;;5019689;28;20053;-71
2023/03/06 00:05:12;;;;;;;5.18;1.80;;;;;;;;;;5033769;28;20057;-71
2023/03/06 00:07:38;;;;;;;6.03;1.92;;;;;;;;;;4996809;28;20148;-72
2023/03/06 00:10:06;;;;;;;4.82;1.80;;;;;;;;;;5036442;28;20066;-71
2023/03/06 00:12:33;;;;;;;5.40;1.73;;;;;;;;;;5037303;28;20049;-72
2023/03/06 00:14:59;;;;;;;3.72;1.70;;;;;;;;;;5045946;28;20052;-72
2023/03/06 00:17:29;;;;;;;4.78;1.77;;;;;;;;;;5033647;28;20092;-71
2023/03/06 00:19:56;;;;;;;3.42;1.60;;;;;;;;;;5039965;28;20045;-70
2023/03/06 00:22:22;;;;;;;4.50;1.80;;;;;;;;;;5020144;28;20049;-71
2023/03/06 00:24:49;;;;;;;3.88;1.70;;;;;;;;;;5013351;28;20454;-71
2023/03/06 00:27:16;;;;;;;5.65;1.80;;;;;;;;;;5040942;28;20053;-71
2023/03/06 00:29:43;;;;;;;3.50;1.90;;;;;;;;;;5040160;28;20048;-71
2023/03/06 00:32:10;;;;;;;4.22;1.80;;;;;;;;;;5056571;28;20049;-71
2023/03/06 00:34:38;;;;;;;3.25;1.58;;;;;;;;;;5047432;28;20056;-71
2023/03/06 00:37:05;;;;;;;4.55;1.60;;;;;;;;;;5018986;28;20073;-71
2023/03/06 00:39:32;;;;;;;4.43;1.70;;;;;;;;;;4987789;28;20120;-72
2023/03/06 00:41:58;;;;;;;4.57;1.67;;;;;;;;;;5027310;28;20071;-71
2023/03/06 00:44:25;;;;;;;3.25;1.67;;;;;;;;;;5017405;28;20055;-71
2023/03/06 00:46:52;;;;;;;4.30;1.70;;;;;;;;;;5000088;28;20054;-71
2023/03/06 00:49:18;;;;;;;4.32;1.65;;;;;;;;;;5021719;28;20115;-71
2023/03/06 00:51:47;;;;;;;5.10;2.03;;;;;;;;;;5010928;28;20053;-72
2023/03/06 00:54:13;;;;;;;4.72;1.80;;;;;;;;;;4995839;28;20049;-71
2023/03/06 00:56:40;;;;;;;4.53;2.10;;;;;;;;;;4988928;28;20057;-71
2023/03/06 00:59:07;;;;;;;2.58;1.35;;;;;;;;;;5019159;28;20113;-71
2023/03/06 01:01:34;;;;;;;4.20;1.60;;;;;;;;;;5013334;28;20057;-72
2023/03/06 01:04:01;;;;;;;3.80;1.60;;;;;;;;;;5016817;28;20053;-71
2023/03/06 01:06:28;;;;;;;4.53;1.67;;;;;;;;;;5014651;28;20103;-71
2023/03/06 01:08:59;;;;;;;6.93;1.83;;;;;;;;;;5008046;28;20056;-71
2023/03/06 01:11:28;;;;;;;5.22;1.65;;;;;;;;;;4985006;28;20103;-71
2023/03/06 01:13:55;;;;;;;4.03;1.77;;;;;;;;;;5015236;28;20051;-72
2023/03/06 01:16:22;;;;;;;5.53;2.10;;;;;;;;;;5035355;28;20052;-72
2023/03/06 01:18:49;;;;;;;4.93;1.60;;;;;;;;;;5018814;28;20064;-71
2023/03/06 01:21:15;;;;;;;5.78;1.90;;;;;;;;;;5021436;28;20171;-71
2023/03/06 01:23:42;;;;;;;3.97;1.70;;;;;;;;;;5012168;28;20057;-71
2023/03/06 01:26:12;;;;;;;4.15;1.90;;;;;;;;;;5030789;28;20057;-71
2023/03/06 01:28:39;;;;;;;5.03;1.85;;;;;;;;;;5032030;28;20056;-71
2023/03/06 01:31:06;;;;;;;3.60;1.80;;;;;;;;;;5026899;28;20163;-71
2023/03/06 01:33:33;;;;;;;4.60;1.65;;;;;;;;;;5032497;28;20059;-70
2023/03/06 01:36:00;;;;;;;4.32;2.03;;;;;;;;;;5029118;28;20045;-71
2023/03/06 01:38:27;;;;;;;5.32;1.90;;;;;;;;;;5034692;28;20088;-71
2023/03/06 01:40:53;;;;;;;3.22;1.80;;;;;;;;;;5023722;28;20040;-71
2023/03/06 01:43:30;;;;;;;4.18;1.85;;;;;;;;;;5029519;28;20058;-71
2023/03/06 01:46:21;;;;;;;6.63;2.13;;;;;;;;;;5019632;28;20068;-71
2023/03/06 01:48:47;;;;;;;;;;;;;;;;;;5033611;28;20064;-71
2023/03/06 01:51:14;;;;;;;4.43;1.90;;;;;;;;;;5014153;28;19925;-71
2023/03/06 01:53:42;;;;;;;3.88;1.75;;;;;;;;;;4993301;28;20289;-71
2023/03/06 01:56:09;;;;;;;5.07;2.03;;;;;;;;;;5000093;28;20158;-72
2023/03/06 01:58:38;;;;;;;5.30;2.05;;;;;;;;;;4987240;28;20053;-71
2023/03/06 02:01:04;;;;;;;4.45;2.13;;;;;;;;;;5013979;28;20236;-72
2023/03/06 02:03:32;;;;;;;5.60;2.35;;;;;;;;;;5016522;28;20241;-71
2023/03/06 02:05:59;;;;;;;5.38;2.45;;;;;;;;;;5010209;28;20077;-71
2023/03/06 02:08:26;;;;;;;4.78;1.88;;;;;;;;;;5021634;28;20065;-71
2023/03/06 02:10:58;;;;;;;5.85;2.47;;;;;;;;;;5038113;28;20060;-71
2023/03/06 02:13:26;;;;;;;5.35;2.25;;;;;;;;;;5013426;28;20061;-71
2023/03/06 02:15:54;;;;;;;6.60;2.45;;;;;;;;;;5014243;28;20059;-70
2023/03/06 02:23:32;;;;;;;7.80;2.38;;;;;;;;;;5038478;27;20479;-72
2023/03/06 02:26:01;;;;;;;4.53;2.30;;;;;;;;;;5034624;28;20088;-72
2023/03/06 02:28:28;;;;;;;;;;;;;;;;;;5014822;28;20056;-72
2023/03/06 02:30:55;;;;;;;7.03;2.35;;;;;;;;;;5036679;28;20356;-72
2023/03/06 02:33:23;;;;;;;7.55;2.75;;;;;;;;;;5023113;28;20048;-72
2023/03/06 02:35:52;;;;;;;6.15;2.72;;;;;;;;;;5028733;28;20057;-72
2023/03/06 02:38:19;;;;;;;6.20;2.60;;;;;;;;;;4998846;28;20053;-72
2023/03/06 02:40:48;;;;;;;8.90;2.60;;;;;;;;;;5024755;28;20052;-71
2023/03/06 02:43:18;;;;;;;7.35;3.15;;;;;;;;;;5019984;28;20144;-71
2023/03/06 02:45:46;;;;;;;6.20;2.80;;;;;;;;;;5025353;28;20045;-70
2023/03/06 02:48:13;;;;;;;6.65;3.45;;;;;;;;;;5023075;28;20158;-72
2023/03/06 02:50:40;;;;;;;7.07;2.95;;;;;;;;;;5012500;28;20048;-71
2023/03/06 02:53:07;;;;;;;9.05;3.60;;;;;;;;;;4996654;28;20143;-71
2023/03/06 02:55:34;;;;;;;7.80;3.15;;;;;;;;;;5016267;28;20053;-72
2023/03/06 02:58:01;;;;;;;8.95;3.05;;;;;;;;;;5024671;28;20057;-71
2023/03/06 03:00:30;;;;;;;6.45;2.67;;;;;;;;;;5014510;28;20108;-72
2023/03/06 03:02:56;;;;;;;7.95;3.15;;;;;;;;;;5032929;28;20056;-71
2023/03/06 03:05:23;;;;;;;7.55;3.42;;;;;;;;;;4958883;28;20135;-71
2023/03/06 03:07:50;;;;;;;7.80;3.17;;;;;;;;;;5020998;28;20057;-71
2023/03/06 03:10:17;;;;;;;9.00;3.58;;;;;;;;;;5003159;28;20050;-72
2023/03/06 03:12:45;;;;;;;9.27;3.47;;;;;;;;;;4995910;28;20045;-71
2023/03/06 03:15:12;;;;;;;8.45;3.53;;;;;;;;;;5011986;28;20056;-70
2023/03/06 03:17:42;;;;;;;8.10;3.35;;;;;;;;;;5025688;28;20172;-71
2023/03/06 03:20:11;;;;;;;8.43;3.78;;;;;;;;;;5010087;28;20053;-71
2023/03/06 03:22:37;;;;;;;;;;;;;;;;;;5004832;28;20130;-71
2023/03/06 03:25:04;;;;;;;7.18;2.92;;;;;;;;;;5016651;28;19947;-71
2023/03/06 03:27:31;;;;;;;10.57;4.20;;;;;;;;;;5023276;28;20067;-70
2023/03/06 03:29:58;;;;;;;10.82;3.78;;;;;;;;;;5030066;28;20073;-70
2023/03/06 03:32:27;;;;;;;8.27;3.33;;;;;;;;;;5029400;28;20083;-71
2023/03/06 03:34:56;;;;;;;8.30;3.30;;;;;;;;;;4996747;28;20167;-71
2023/03/06 03:37:23;;;;;;;7.90;3.80;;;;;;;;;;5008330;28;20068;-70
2023/03/06 03:39:49;;;;;;;8.40;3.40;;;;;;;;;;4987177;28;20566;-71
2023/03/06 03:42:16;;;;;;;9.88;3.63;;;;;;;;;;4998972;28;20068;-71
2023/03/06 03:44:43;;;;;;;8.40;3.90;;;;;;;;;;4960856;28;20053;-70
2023/03/06 03:47:10;;;;;;;8.35;3.92;;;;;;;;;;4995301;28;20060;-70
2023/03/06 03:49:36;;;;;;;8.15;3.47;;;;;;;;;;4992025;28;20105;-71
2023/03/06 03:52:07;;;;;;;11.15;3.97;;;;;;;;;;4988589;28;20443;-70
2023/03/06 03:54:34;;;;;;;9.10;3.97;;;;;;;;;;4972594;28;20149;-70
2023/03/06 03:57:01;;;;;;;8.70;3.97;;;;;;;;;;4992507;28;20052;-70
2023/03/06 03:59:29;;;;;;;8.20;3.83;;;;;;;;;;4992434;28;20054;-69
2023/03/06 04:01:56;;;;;;;9.75;3.70;;;;;;;;;;4982800;28;20054;-71
2023/03/06 04:04:23;;;;;;;9.20;3.55;;;;;;;;;;4990601;28;20067;-70
2023/03/06 04:06:50;;;;;;;8.35;3.55;;;;;;;;;;4987340;28;20053;-71
2023/03/06 04:09:18;;;;;;;9.70;4.28;;;;;;;;;;5010740;28;20096;-70
2023/03/06 04:11:45;;;;;;;8.60;3.55;;;;;;;;;;4973613;28;20508;-71
2023/03/06 04:14:12;;;;;;;8.35;4.00;;;;;;;;;;5016068;28;20173;-71
2023/03/06 04:16:38;;;;;;;9.43;3.78;;;;;;;;;;4998220;28;20201;-70
2023/03/06 04:19:05;;;;;;;10.93;3.92;;;;;;;;;;5017045;28;20061;-70
2023/03/06 04:21:32;;;;;;;8.68;4.13;;;;;;;;;;4985280;28;20234;-70
2023/03/06 04:23:58;;;;;;;8.43;3.88;;;;;;;;;;4993737;28;20061;-71
2023/03/06 04:26:29;;;;;;;10.63;4.05;;;;;;;;;;5012746;28;20053;-71
2023/03/06 04:28:57;;;;;;;10.50;3.90;;;;;;;;;;4991343;28;20062;-71
2023/03/06 04:31:24;;;;;;;9.87;4.00;;;;;;;;;;4978105;28;20050;-71
2023/03/06 04:33:51;;;;;;;10.35;3.90;;;;;;;;;;4976019;28;20308;-70
2023/03/06 04:36:25;;;;;;;12.38;4.10;;;;;;;;;;5009264;28;20156;-70
2023/03/06 04:38:52;;;;;;;9.10;4.00;;;;;;;;;;4995652;28;20149;-70
2023/03/06 04:41:18;;;;;;;11.02;4.13;;;;;;;;;;5001535;28;20061;-71
2023/03/06 04:43:46;;;;;;;10.80;4.35;;;;;;;;;;5004139;28;20058;-71
2023/03/06 04:46:13;;;;;;;9.60;3.97;;;;;;;;;;4966373;28;20046;-71
2023/03/06 04:48:40;;;;;;;8.88;3.70;;;;;;;;;;4986236;28;20054;-69
2023/03/06 04:51:07;;;;;;;11.40;4.32;;;;;;;;;;4997754;28;20069;-71
2023/03/06 04:53:33;;;;;;;8.85;4.15;;;;;;;;;;4993214;28;20058;-71
2023/03/06 04:56:00;;;;;;;10.38;4.45;;;;;;;;;;4998855;28;20054;-70
2023/03/06 04:58:27;;;;;;;11.35;4.03;;;;;;;;;;4963669;28;20148;-71
2023/03/06 05:00:55;;;;;;;10.15;4.13;;;;;;;;;;4952064;28;20137;-71
2023/03/06 05:03:22;;;;;;;9.68;4.35;;;;;;;;;;4957848;28;20056;-70
2023/03/06 05:05:49;;;;;;;10.43;4.03;;;;;;;;;;4992300;28;20058;-71
2023/03/06 05:08:17;;;;;;;8.52;3.80;;;;;;;;;;5013467;28;20064;-69
2023/03/06 05:10:46;;;;;;;8.10;3.60;;;;;;;;;;4985429;28;20064;-71
2023/03/06 05:13:13;;;;;;;10.52;4.40;;;;;;;;;;5004518;28;20084;-71
2023/03/06 05:15:40;;;;;;;11.20;4.18;;;;;;;;;;4977779;28;20163;-71
2023/03/06 05:18:10;;;;;;;8.60;3.67;;;;;;;;;;4998375;28;20076;-71
2023/03/06 05:20:37;;;;;;;9.73;3.75;;;;;;;;;;5003732;28;20057;-71
2023/03/06 05:23:03;;;;;;;8.63;3.90;;;;;;;;;;5011589;28;20049;-71
2023/03/06 05:25:30;;;;;;;12.18;4.07;;;;;;;;;;5001685;28;20053;-70
2023/03/06 05:27:57;;;;;;;11.48;3.83;;;;;;;;;;5025652;28;20077;-71
2023/03/06 05:30:24;;;;;;;8.32;3.75;;;;;;;;;;4994940;28;20063;-71
2023/03/06 05:32:51;;;;;;;10.43;4.30;;;;;;;;;;5035362;28;20057;-70
2023/03/06 05:35:19;;;;;;;10.20;4.18;;;;;;;;;;5006145;28;20049;-71
2023/03/06 05:37:46;;;;;;;12.95;4.22;;;;;;;;;;5026372;28;20056;-70
2023/03/06 05:40:13;;;;;;;9.02;3.95;;;;;;;;;;5023937;28;20113;-71
2023/03/06 05:42:40;;;;;;;8.18;4.00;;;;;;;;;;5003352;28;20077;-70
2023/03/06 05:45:07;;;;;;;7.43;3.63;;;;;;;;;;5013934;28;20061;-69
2023/03/06 05:47:34;;;;;;;10.35;3.85;;;;;;;;;;5007487;28;20049;-70
2023/03/06 05:50:01;;;;;;;8.98;4.28;;;;;;;;;;5020166;28;20061;-71
2023/03/06 05:52:30;;;;;;;9.27;3.88;;;;;;;;;;5014215;28;20053;-71
2023/03/06 05:54:57;;;;;;;10.23;3.90;;;;;;;;;;4974033;28;20053;-70
2023/03/06 05:57:24;;;;;;;9.57;3.33;;;;;;;;;;5030985;28;20456;-72
2023/03/06 05:59:51;;;;;;;11.23;3.95;;;;;;;;;;5009689;28;20307;-71
2023/03/06 06:02:19;;;;;;;9.93;4.15;;;;;;;;;;5013888;28;20152;-71
2023/03/06 06:04:45;;;;;;;11.95;3.63;;;;;;;;;;5007602;28;20061;-71
2023/03/06 06:07:13;;;;;;;8.98;3.38;;;;;;;;;;5013024;28;20059;-71
2023/03/06 06:09:56;;;;;;;9.85;3.67;;;;;;;;;;5030860;28;20045;-73
2023/03/06 06:12:25;;;;;;;6.70;3.03;;;;;;;;;;5004587;28;20155;-74
2023/03/06 06:14:51;;;;;;;7.70;3.75;;;;;;;;;;4978976;28;20164;-72
2023/03/06 06:17:19;;;;;;;10.85;4.00;;;;;;;;;;5003426;28;20061;-73
2023/03/06 06:19:46;;;;;;;11.25;3.85;;;;;;;;;;5011357;28;20053;-73
2023/03/06 06:22:13;;;;;;;8.55;3.70;;;;;;;;;;4968261;28;20090;-72
2023/03/06 06:24:49;;;;;;;11.50;3.60;;;;;;;;;;4876929;28;20362;-73
2023/03/06 06:27:20;;;;;;;9.70;3.65;;;;;;;;;;4884421;29;20518;-73
2023/03/06 06:35:11;;;;;;;11.45;4.00;;;;;;;;;;4968360;28;20486;-68
2023/03/06 06:37:38;;;;;;;8.93;3.90;;;;;;;;;;4938662;28;20046;-68
2023/03/06 06:40:15;;;;;;;8.50;3.90;;;;;;;;;;4972009;28;20488;-68
2023/03/06 06:42:45;;;;;;;8.43;3.55;;;;;;;;;;4984514;28;20161;-67
2023/03/06 06:45:21;;;;;;;9.57;3.78;;;;;;;;;;4922125;28;20073;-67
2023/03/06 06:47:50;;;;;;;9.43;3.97;;;;;;;;;;4983917;28;20489;-68
2023/03/06 06:50:24;;;;;;;7.60;3.38;;;;;;;;;;4978880;28;20054;-68
2023/03/06 06:52:55;;;;;;;9.30;3.92;;;;;;;;;;4972983;28;20127;-67
2023/03/06 06:55:23;;;;;;;7.85;3.60;;;;;;;;;;4925443;28;20054;-69
2023/03/06 06:57:50;;;;;;;12.02;3.95;;;;;;;;;;4978921;28;20045;-66
2023/03/06 07:00:17;;;;;;;8.20;3.67;;;;;;;;;;4987551;28;20546;-69
2023/03/06 07:02:47;;;;;;;10.70;4.00;;;;;;;;;;4989150;28;20096;-68
2023/03/06 07:05:14;;;;;;;9.55;3.47;;;;;;;;;;4954109;28;20053;-68
2023/03/06 07:07:46;;;;;;;10.85;3.83;;;;;;;;;;4977755;28;20049;-69
2023/03/06 07:10:14;;;;;;;8.15;3.72;;;;;;;;;;4984697;28;20065;-67
2023/03/06 07:12:43;;;;;;;7.85;3.13;;;;;;;;;;4965578;28;20072;-67
2023/03/06 07:15:20;;;;;;;9.43;3.45;;;;;;;;;;4935329;28;20125;-68
2023/03/06 07:17:50;;;;;;;7.88;3.53;;;;;;;;;;4936171;28;20117;-68
2023/03/06 07:20:22;;;;;;;8.40;3.50;;;;;;;;;;4969655;28;20065;-67
2023/03/06 07:22:52;;;;;;;8.38;3.42;;;;;;;;;;4994519;28;20104;-69
2023/03/06 07:25:20;;;;;;;7.18;3.20;;;;;;;;;;4977095;28;20062;-68
2023/03/06 07:27:50;;;;;;;8.27;3.13;;;;;;;;;;4984270;28;20050;-68
2023/03/06 07:30:20;;;;;;;8.52;3.88;;;;;;;;;;4979566;28;20053;-68
2023/03/06 07:32:49;;;;;;;7.80;3.17;;;;;;;;;;4988235;28;20050;-67
2023/03/06 07:35:16;;;;;;;8.02;3.17;;;;;;;;;;4991362;28;20068;-66
2023/03/06 07:37:44;;;;;;;7.60;3.60;;;;;;;;;;5000215;28;20143;-66
2023/03/06 07:40:15;;;;;;;7.88;3.05;;;;;;;;;;4995777;28;20321;-67
2023/03/06 07:42:42;;;;;;;7.82;2.85;;;;;;;;;;4995445;28;20049;-69
2023/03/06 07:45:08;;;;;;;7.03;2.92;;;;;;;;;;4970963;28;20125;-67
2023/03/06 07:47:35;;;;;;;6.68;2.92;;;;;;;;;;4969732;28;20141;-66
2023/03/06 07:50:06;;;;;;;11.02;3.75;;;;;;;;;;4956806;28;20215;-67
2023/03/06 07:52:33;;;;;;;6.63;3.00;;;;;;;;;;4980878;28;20054;-66
2023/03/06 07:55:02;;;;;;;6.68;3.03;;;;;;;;;;4955215;28;20145;-66
2023/03/06 07:57:30;;;;;;;5.93;2.67;;;;;;;;;;4964859;28;20484;-67
2023/03/06 07:59:57;;;;;;;6.32;2.92;;;;;;;;;;4955700;28;20065;-67
2023/03/06 08:02:25;;;;;;;6.25;2.75;;;;;;;;;;4947381;28;20065;-67
2023/03/06 08:04:52;;;;;;;;;;;;;;;;;;4940227;28;21261;-67
2023/03/06 08:07:18;;;;;;;5.07;2.08;;;;;;;;;;4963774;28;20020;-66
2023/03/06 08:09:45;;;;;;;5.75;2.55;;;;;;;;;;4971771;28;20073;-66
2023/03/06 08:12:13;;;;;;;9.13;2.85;;;;;;;;;;4972782;28;20077;-66
2023/03/06 08:14:41;;;;;;;5.63;2.42;;;;;;;;;;4979216;28;20255;-67
2023/03/06 08:17:08;;;;;;;5.32;2.42;;;;;;;;;;4948705;28;20064;-66
2023/03/06 08:19:37;;;;;;;6.10;2.50;;;;;;;;;;4953194;28;20057;-66
2023/03/06 08:22:06;;;;;;;5.75;2.40;;;;;;;;;;4957501;28;20050;-67
2023/03/06 08:24:32;;;;;;;;;;;;;;;;;;4942202;28;20101;-68
2023/03/06 08:26:59;;;;;;;6.63;2.25;;;;;;;;;;4952138;28;19972;-68
2023/03/06 08:29:26;;;;;;;6.32;2.35;;;;;;;;;;4969592;28;20054;-67
2023/03/06 08:31:59;;;;;;;5.10;1.98;;;;;;;;;;4960363;28;20082;-67
2023/03/06 08:34:26;;;;;;;4.72;2.00;;;;;;;;;;4970179;28;20083;-68
2023/03/06 08:36:55;;;;;;;6.57;2.50;;;;;;;;;;4920904;28;20081;-67
2023/03/06 08:39:22;;;;;;;4.05;1.98;;;;;;;;;;4995788;28;20057;-66
2023/03/06 08:41:49;;;;;;;4.88;2.13;;;;;;;;;;4950306;28;20148;-67
2023/03/06 08:44:22;;;;;;;4.78;2.03;;;;;;;;;;4958051;28;20054;-68
2023/03/06 08:46:48;;;;;;;5.90;2.20;;;;;;;;;;4938575;28;20061;-67
2023/03/06 08:49:25;;;;;;;6.65;2.00;;;;;;;;;;4954554;28;20099;-67
2023/03/06 08:51:53;;;;;;;4.20;1.88;;;;;;;;;;4949105;28;20069;-67
2023/03/06 08:54:22;;;;;;;4.18;1.73;;;;;;;;;;4973402;28;20066;-67
2023/03/06 08:56:49;;;;;;;3.53;1.75;;;;;;;;;;4953796;28;20943;-67
2023/03/06 08:59:18;;;;;;;4.40;1.75;;;;;;;;;;4944253;28;20122;-67
2023/03/06 09:01:45;;;;;;;3.38;1.60;;;;;;;;;;4968793;28;20058;-67
2023/03/06 09:04:12;;;;;;;3.75;1.55;;;;;;;;;;4951441;28;20062;-67
2023/03/06 09:06:45;;;;;;;3.85;1.38;;;;;;;;;;4919022;28;20409;-66
2023/03/06 09:09:12;;;;;;;3.92;1.83;;;;;;;;;;4980781;28;20057;-67
2023/03/06 09:11:39;;;;;;;3.55;1.35;;;;;;;;;;4965026;28;20132;-66
2023/03/06 09:14:09;;;;;;;3.35;1.58;;;;;;;;;;4980543;28;20065;-66
2023/03/06 09:16:45;;;;;;;5.65;1.63;;;;;;;;;;4892725;28;20058;-67
2023/03/06 09:19:12;;;;;;;2.78;1.30;;;;;;;;;;4948791;28;20070;-67
2023/03/06 09:21:40;;;;;;;2.90;1.17;;;;;;;;;;4958813;28;20085;-67
2023/03/06 09:24:09;;;;;;;3.13;1.33;;;;;;;;;;4950904;28;20046;-66
2023/03/06 09:26:35;;;;;;;2.17;1.08;;;;;;;;;;4957945;28;20212;-66
2023/03/06 09:29:02;;;;;;;2.60;1.20;;;;;;;;;;4970646;28;20183;-67
2023/03/06 09:31:31;;;;;;;2.92;1.30;;;;;;;;;;4949905;28;20125;-66
2023/03/06 09:33:58;;;;;;;2.28;1.20;;;;;;;;;;4943171;28;20042;-66
2023/03/06 09:36:25;;;;;;;2.25;1.17;;;;;;;;;;4959614;28;20077;-66
2023/03/06 09:38:54;;;;;;;2.25;1.20;;;;;;;;;;4926297;28;20148;-66
2023/03/06 09:41:28;;;;;;;2.67;1.10;;;;;;;;;;4949859;28;20140;-66
2023/03/06 09:44:03;;;;;;;2.25;1.10;;;;;;;;;;4948027;28;20043;-66
2023/03/06 09:46:33;;;;;;;3.88;1.13;;;;;;;;;;4948574;28;20084;-67
2023/03/06 09:49:14;;;;;;;2.15;1.00;;;;;;;;;;4947028;28;20057;-68
2023/03/06 09:51:51;;;;;;;2.03;0.93;;;;;;;;;;4942073;28;20062;-66
2023/03/06 09:54:21;;;;;;;1.48;0.90;;;;;;;;;;4951707;28;20108;-67
2023/03/06 09:56:52;;;;;;;2.42;1.13;;;;;;;;;;4930360;28;21200;-66
2023/03/06 09:59:20;;;;;;;2.63;1.10;;;;;;;;;;4920372;28;20140;-66
2023/03/06 10:01:54;;;;;;;1.38;0.80;;;;;;;;;;4932254;28;20058;-66
2023/03/06 10:04:28;;;;;;;1.48;1.00;;;;;;;;;;4925667;28;20198;-67
2023/03/06 10:07:02;;;;;;;2.35;0.98;;;;;;;;;;4931300;28;20061;-66
2023/03/06 10:09:38;;;;;;;3.08;1.20;;;;;;;;;;4954245;28;20050;-66
2023/03/06 10:12:16;;;;;;;1.23;0.70;;;;;;;;;;4968777;28;20045;-65
2023/03/06 10:14:57;;;;;;;2.20;1.00;;;;;;;;;;4968928;28;20046;-66
2023/03/06 10:17:26;;;;;;;4.75;0.93;;;;;;;;;;4934758;28;20437;-66
2023/03/06 10:19:52;;;;;;;;;;;;;;;;;;4958737;28;20067;-66
2023/03/06 10:22:27;;;;;;;2.58;0.70;;;;;;;;;;4963305;28;19949;-66
2023/03/06 10:25:01;;;;;;;2.20;0.77;;;;;;;;;;4971308;28;20058;-66
2023/03/06 10:27:34;;;;;;;2.17;0.68;;;;;;;;;;4895148;28;20550;-65
2023/03/06 10:30:05;;;;;;;1.83;0.77;;;;;;;;;;4977438;28;20062;-65
2023/03/06 10:32:45;;;;;;;1.80;0.90;;;;;;;;;;4953806;28;20136;-66
2023/03/06 10:35:15;;;;;;;1.13;0.70;;;;;;;;;;4938485;28;20055;-66
2023/03/06 10:37:41;;;;;;;1.05;0.90;;;;;;;;;;4930872;28;20114;-66
2023/03/06 10:40:15;;;;;;;4.10;0.70;;;;;;;;;;4956470;28;20067;-66
2023/03/06 10:42:42;;;;;;;1.67;0.90;;;;;;;;;;4965318;28;20113;-65
2023/03/06 10:45:09;;;;;;;1.40;0.80;;;;;;;;;;4960889;28;20063;-66
2023/03/06 10:47:37;;;;;;;1.55;0.80;;;;;;;;;;4934820;28;20129;-66
2023/03/06 10:50:06;;;;;;;1.48;0.73;;;;;;;;;;4944270;28;20053;-66
2023/03/06 10:52:58;;;;;;;2.15;0.98;;;;;;;;;;4943267;28;20299;-67
2023/03/06 10:55:27;;;;;;;1.42;0.68;;;;;;;;;;4938857;28;20142;-67
2023/03/06 10:57:54;;;;;;;1.50;0.68;;;;;;;;;;4973765;28;20111;-66
2023/03/06 11:00:25;;;;;;;1.10;0.70;;;;;;;;;;4963943;28;20082;-67
2023/03/06 11:03:03;;;;;;;2.17;0.70;;;;;;;;;;4956131;28;20059;-67
2023/03/06 11:05:32;;;;;;;2.40;0.65;;;;;;;;;;4973336;28;20059;-67
2023/03/06 11:08:02;;;;;;;0.55;0.55;;;;;;;;;;4934913;28;20125;-66
2023/03/06 11:10:32;;;;;;;1.10;0.75;;;;;;;;;;4932542;28;20067;-67
2023/03/06 11:13:01;;;;;;;1.52;0.70;;;;;;;;;;4974715;28;20066;-67
2023/03/06 11:15:28;;;;;;;0.45;0.40;;;;;;;;;;4989155;28;20065;-66
2023/03/06 11:17:57;;;;;;;1.48;0.80;;;;;;;;;;4926284;28;20104;-66
2023/03/06 11:20:27;;;;;;;1.30;0.65;;;;;;;;;;4955699;28;20141;-67
2023/03/06 11:23:05;;;;;;;0.80;0.50;;;;;;;;;;4947735;28;20069;-66
2023/03/06 11:25:39;;;;;;;1.27;0.65;;;;;;;;;;4953189;28;20054;-67
2023/03/06 11:28:07;;;;;;;2.92;0.70;;;;;;;;;;4943948;28;20072;-66
2023/03/06 11:30:37;;;;;;;1.20;0.70;;;;;;;;;;4950185;28;20121;-67
2023/03/06 11:33:08;;;;;;;0.57;0.40;;;;;;;;;;4954469;28;20113;-66
2023/03/06 11:35:39;;;;;;;2.22;0.70;;;;;;;;;;4970543;28;20050;-67
2023/03/06 11:38:10;;;;;;;1.50;0.75;;;;;;;;;;4948411;28;20141;-67
2023/03/06 11:40:43;;;;;;;1.42;0.70;;;;;;;;;;4948128;28;20054;-66
2023/03/06 11:43:17;;;;;;;0.88;0.57;;;;;;;;;;4966083;28;20069;-68
2023/03/06 11:45:45;;;;;;;1.50;0.80;;;;;;;;;;4956540;28;20062;-66
2023/03/06 11:48:23;;;;;;;2.13;0.68;;;;;;;;;;4942997;28;20172;-66
2023/03/06 11:50:59;;;;;;;1.95;0.70;;;;;;;;;;4983484;28;20136;-66
2023/03/06 11:53:27;;;;;;;0.57;0.52;;;;;;;;;;4999386;28;20121;-66
2023/03/06 11:55:59;;;;;;;3.25;0.70;;;;;;;;;;4972058;28;20150;-66
2023/03/06 11:58:39;;;;;;;1.60;0.55;;;;;;;;;;4979883;28;20061;-66
2023/03/06 12:01:08;;;;;;;2.47;0.57;;;;;;;;;;4963247;28;20046;-66
2023/03/06 12:03:34;;;;;;;;;;;;;;;;;;4947787;28;20085;-66
2023/03/06 12:06:03;;;;;;;0.75;0.50;;;;;;;;;;4961233;28;19968;-67
2023/03/06 12:08:37;;;;;;;1.13;0.55;;;;;;;;;;4958088;28;20126;-67
2023/03/06 12:11:12;;;;;;;2.22;0.70;;;;;;;;;;4965381;28;20065;-66
2023/03/06 12:13:46;;;;;;;0.88;0.70;;;;;;;;;;4985117;28;20072;-66
2023/03/06 12:16:28;;;;;;;1.30;0.68;;;;;;;;;;4935339;28;20069;-66
2023/03/06 12:18:58;;;;;;;2.10;0.63;;;;;;;;;;4921249;28;20054;-66
2023/03/06 12:21:30;;;;;;;1.35;0.70;;;;;;;;;;4955211;28;20121;-67
2023/03/06 12:24:07;;;;;;;1.27;0.63;;;;;;;;;;4954481;28;20061;-66
2023/03/06 12:26:47;;;;;;;1.17;0.52;;;;;;;;;;4904801;28;20063;-67
2023/03/06 12:29:22;;;;;;;1.63;0.90;;;;;;;;;;4948021;28;20064;-67
2023/03/06 12:31:56;;;;;;;1.38;0.70;;;;;;;;;;4964673;28;20045;-66
2023/03/06 12:34:30;;;;;;;0.95;0.60;;;;;;;;;;4954411;28;20058;-67
2023/03/06 12:37:01;;;;;;;1.33;0.63;;;;;;;;;;4902622;28;20058;-66
2023/03/06 12:39:34;;;;;;;2.40;0.88;;;;;;;;;;4951755;28;20081;-67
2023/03/06 12:42:12;;;;;;;0.90;0.60;;;;;;;;;;4948508;28;20074;-66
2023/03/06 12:44:57;;;;;;;1.58;0.70;;;;;;;;;;4941081;28;20279;-67
2023/03/06 12:47:25;;;;;;;1.27;0.70;;;;;;;;;;4950626;28;20095;-67
2023/03/06 12:49:54;;;;;;;3.15;0.93;;;;;;;;;;4955998;28;20137;-66
2023/03/06 12:52:23;;;;;;;1.33;0.80;;;;;;;;;;4951153;28;20054;-67
2023/03/06 12:54:49;;;;;;;;;;;;;;;;;;4930920;28;20202;-67
2023/03/06 12:57:23;;;;;;;2.05;0.90;;;;;;;;;;4909385;28;19952;-67
2023/03/06 12:59:49;;;;;;;2.47;1.15;;;;;;;;;;4946755;28;20118;-67
2023/03/06 13:02:40;;;;;;;1.80;1.00;;;;;;;;;;4960368;28;20075;-67
2023/03/06 13:05:26;;;;;;;1.92;0.90;;;;;;;;;;4951748;28;20089;-67
2023/03/06 13:08:00;;;;;;;1.70;0.93;;;;;;;;;;4911336;28;20042;-68
2023/03/06 13:10:28;;;;;;;2.03;1.02;;;;;;;;;;4964832;28;20070;-68
2023/03/06 13:12:59;;;;;;;1.92;0.70;;;;;;;;;;4963366;28;20054;-67
2023/03/06 13:15:35;;;;;;;1.65;0.85;;;;;;;;;;4965263;28;20146;-66
2023/03/06 13:18:07;;;;;;;1.33;0.70;;;;;;;;;;4943817;28;20062;-67
2023/03/06 13:20:38;;;;;;;2.42;0.80;;;;;;;;;;4942184;28;20058;-67
2023/03/06 13:23:23;;;;;;;2.40;1.00;;;;;;;;;;4967422;28;20089;-67
2023/03/06 13:25:50;;;;;;;0.80;0.60;;;;;;;;;;4962824;28;20133;-66
2023/03/06 13:28:26;;;;;;;1.67;0.90;;;;;;;;;;4913798;28;20085;-66
2023/03/06 13:30:55;;;;;;;1.50;1.00;;;;;;;;;;4977973;28;20057;-66
2023/03/06 13:33:40;;;;;;;1.25;0.90;;;;;;;;;;4951718;28;20132;-66
2023/03/06 13:36:22;;;;;;;1.67;0.88;;;;;;;;;;4960891;28;20121;-66
2023/03/06 13:38:59;;;;;;;1.80;1.20;;;;;;;;;;4959043;28;20133;-66
2023/03/06 13:41:33;;;;;;;1.15;0.90;;;;;;;;;;4949336;28;20050;-66
2023/03/06 13:44:02;;;;;;;2.17;1.00;;;;;;;;;;4925806;28;20083;-66
2023/03/06 13:46:33;;;;;;;2.90;1.20;;;;;;;;;;4954230;28;20053;-67
2023/03/06 13:49:04;;;;;;;4.28;1.10;;;;;;;;;;4936660;28;20462;-68
2023/03/06 13:51:33;;;;;;;4.32;1.10;;;;;;;;;;4960173;28;20063;-66
2023/03/06 13:53:59;;;;;;;;;;;;;;;;;;4972922;28;20061;-67
2023/03/06 13:56:39;;;;;;;1.70;1.08;;;;;;;;;;4945782;28;20028;-66
2023/03/06 13:59:27;;;;;;;2.65;1.27;;;;;;;;;;4928340;28;20066;-66
2023/03/06 14:02:02;;;;;;;3.35;1.50;;;;;;;;;;4951479;28;20046;-66
2023/03/06 14:04:33;;;;;;;4.38;1.70;;;;;;;;;;4947077;28;20054;-67
2023/03/06 14:07:20;;;;;;;2.20;1.40;;;;;;;;;;4972443;28;20069;-67
2023/03/06 14:09:47;;;;;;;3.00;1.58;;;;;;;;;;4962593;28;20089;-66
2023/03/06 14:12:22;;;;;;;4.30;1.70;;;;;;;;;;4961715;28;20054;-66
2023/03/06 14:14:56;;;;;;;5.95;2.08;;;;;;;;;;4955450;28;21322;-66
2023/03/06 14:17:27;;;;;;;4.40;1.80;;;;;;;;;;4970116;28;20085;-66
2023/03/06 14:19:56;;;;;;;6.75;2.03;;;;;;;;;;4953112;28;20054;-67
2023/03/06 14:22:28;;;;;;;4.32;1.92;;;;;;;;;;4959420;28;20050;-67
2023/03/06 14:24:58;;;;;;;5.35;2.42;;;;;;;;;;4950557;28;20061;-67
2023/03/06 14:30:30;;;;;;;5.50;1.90;;;;;;;;;;4950389;28;20055;-67
2023/03/06 14:32:57;;;;;;;4.60;2.28;;;;;;;;;;4954275;28;20066;-67
2023/03/06 14:35:28;;;;;;;4.60;2.30;;;;;;;;;;4954413;28;20113;-66
2023/03/06 14:37:56;;;;;;;5.68;2.78;;;;;;;;;;4909705;28;20077;-66
2023/03/06 14:40:28;;;;;;;7.07;3.13;;;;;;;;;;4926233;28;20051;-67
2023/03/06 14:43:11;;;;;;;6.68;2.58;;;;;;;;;;4953854;28;20230;-67
2023/03/06 14:45:55;;;;;;;6.32;2.97;;;;;;;;;;4936860;28;20056;-66
2023/03/06 14:48:38;;;;;;;6.47;2.95;;;;;;;;;;4915572;28;20156;-68
2023/03/06 14:51:05;;;;;;;6.25;2.90;;;;;;;;;;4984023;28;20212;-67
2023/03/06 14:53:33;;;;;;;6.32;3.05;;;;;;;;;;4958907;28;20059;-68
2023/03/06 14:56:02;;;;;;;7.40;2.97;;;;;;;;;;4965156;28;20062;-67
2023/03/06 14:58:31;;;;;;;9.02;3.03;;;;;;;;;;4932525;28;20050;-66
2023/03/06 15:01:06;;;;;;;5.50;2.72;;;;;;;;;;4975058;28;20059;-67
2023/03/06 15:03:41;;;;;;;6.03;2.90;;;;;;;;;;4940535;28;20051;-67
2023/03/06 15:06:10;;;;;;;7.03;2.88;;;;;;;;;;4931189;28;20059;-68
2023/03/06 15:08:43;;;;;;;6.85;2.70;;;;;;;;;;4934597;28;20050;-67
2023/03/06 15:11:10;;;;;;;6.72;2.78;;;;;;;;;;4951200;28;20061;-68
2023/03/06 15:13:37;;;;;;;5.68;2.40;;;;;;;;;;4948733;28;20089;-67